Anthem, Arizona
Current Conditions -  °F | °C
As of 12:53 AM on Thursday 23 Oct 2014 (Local Time) from KDVT Reporting Station
Clear Clear  
Wind Chill: 72°   Ceiling: Unl
Heat Index: 72°   Visibility: 10mi
Dew Point: 47°   Wind: 6mph
Humidity: 41%   Direction: 40°NE
Pressure: 29.97"   Gusts: NA
Location:  33.8348°N, 112.071°W
Report Text: KDVT 230753Z AUTO 04005KT 10SM CLR 22/08 A2997 RMK AO2 SLP126 T02220083
Loading
Personal Weather Stations






























Interactive Weather Map
Tropical Storm Tracking
New forecast layout! Learn more

10-Day Weather Forecast

Advertisements
Track Severe Weather on mobile